Time;durP1;ratioP1;P1;durP2;ratioP2;P2;SDS_P1;SDS_P2;PMS_P1;PMS_P2;Temp;Humidity;BMP_temperature;BMP_pressure;BME280_temperature;BME280_humidity;BME280_pressure;Samples;Min_cycle;Max_cycle;Signal;HPM_P1;HPM_P2
2021/03/14 15:56:33;;;;;;;6.68;1.95;;;15.70;91.10;;;;;;5164145;27;20308;-74
2021/03/14 16:00:37;;;;;;;12.65;2.28;;;15.40;88.60;;;;;;5094862;28;20378;-66
2021/03/14 16:03:04;;;;;;;5.82;2.15;;;14.40;90.30;;;;;;5075105;28;20025;-66
2021/03/14 16:05:30;;;;;;;9.10;2.22;;;13.50;91.50;;;;;;5074366;28;20020;-65
2021/03/14 16:07:57;;;;;;;25.42;3.33;;;13.30;92.60;;;;;;5074764;28;20029;-69
2021/03/14 16:10:23;;;;;;;6.82;1.92;;;14.10;92.20;;;;;;5073908;28;20033;-64
2021/03/14 16:12:49;;;;;;;11.63;2.17;;;14.90;90.40;;;;;;5074651;28;20025;-69
2021/03/14 16:15:16;;;;;;;15.60;2.58;;;13.50;89.00;;;;;;5091925;28;20028;-71
2021/03/14 16:17:42;;;;;;;6.47;2.20;;;14.20;89.70;;;;;;5084326;28;20017;-69
2021/03/14 16:20:09;;;;;;;7.90;2.65;;;13.80;91.30;;;;;;5074355;28;20033;-69
2021/03/14 16:22:35;;;;;;;7.45;1.38;;;13.60;91.60;;;;;;5072921;28;20055;-69
2021/03/14 16:25:01;;;;;;;9.43;2.10;;;13.40;92.30;;;;;;5073593;28;20033;-69
2021/03/14 16:27:27;;;;;;;12.60;2.00;;;13.10;92.00;;;;;;5074127;28;20083;-69
2021/03/14 16:29:53;;;;;;;9.80;2.28;;;13.00;91.90;;;;;;5061951;28;20112;-69
2021/03/14 16:32:19;;;;;;;7.63;2.05;;;12.60;92.30;;;;;;5068117;28;20075;-69
2021/03/14 16:34:46;;;;;;;6.20;1.70;;;12.80;92.20;;;;;;5072924;28;20028;-69
2021/03/14 16:37:19;;;;;;;11.65;1.90;;;12.80;92.20;;;;;;5073011;28;20028;-69
2021/03/14 16:39:45;;;;;;;9.35;2.13;;;12.80;91.90;;;;;;5073822;28;20052;-69
2021/03/14 16:42:14;;;;;;;9.25;2.05;;;12.90;91.50;;;;;;5073580;28;20385;-69
2021/03/14 16:44:40;;;;;;;7.38;2.22;;;12.80;91.60;;;;;;5073401;28;20028;-69
2021/03/14 16:47:06;;;;;;;9.98;2.13;;;12.60;91.90;;;;;;5073670;28;20016;-69
2021/03/14 16:49:32;;;;;;;10.05;2.10;;;12.50;92.00;;;;;;5089087;28;20025;-69
2021/03/14 16:51:58;;;;;;;15.57;3.33;;;12.40;92.20;;;;;;5072626;28;20033;-69
2021/03/14 16:54:24;;;;;;;9.32;2.60;;;12.20;92.10;;;;;;5073676;28;20111;-69
2021/03/14 16:56:50;;;;;;;12.55;2.38;;;12.10;92.10;;;;;;5073416;28;20086;-69
2021/03/14 16:59:17;;;;;;;10.63;2.60;;;12.00;93.10;;;;;;5072695;28;20084;-69
2021/03/14 17:01:43;;;;;;;7.47;2.13;;;11.90;93.10;;;;;;5073079;28;20017;-69
2021/03/14 17:04:09;;;;;;;5.47;1.77;;;12.00;93.70;;;;;;5072675;28;20047;-68
2021/03/14 17:06:35;;;;;;;7.82;2.17;;;11.90;93.40;;;;;;5072638;28;20101;-68
2021/03/14 17:09:02;;;;;;;9.80;2.22;;;11.90;93.90;;;;;;5073581;28;20020;-68
2021/03/14 17:11:28;;;;;;;7.03;2.30;;;11.90;94.40;;;;;;5054444;28;20096;-69
2021/03/14 17:13:54;;;;;;;6.78;1.83;;;11.90;94.50;;;;;;5049271;28;20032;-69
2021/03/14 17:16:20;;;;;;;6.03;1.77;;;11.90;94.60;;;;;;5056043;28;20028;-69
2021/03/14 17:18:46;;;;;;;9.75;2.25;;;11.70;94.50;;;;;;5065946;28;20039;-69
2021/03/14 17:21:12;;;;;;;8.18;1.90;;;11.80;95.00;;;;;;5079868;28;20016;-68
2021/03/14 17:23:39;;;;;;;8.98;1.73;;;11.70;95.00;;;;;;5073191;28;20017;-69
2021/03/14 17:26:06;;;;;;;16.40;2.00;;;11.60;95.70;;;;;;5057718;28;20048;-69
2021/03/14 17:28:32;;;;;;;10.57;2.63;;;11.50;95.80;;;;;;5059706;28;20029;-68
2021/03/14 17:30:58;;;;;;;6.72;2.00;;;11.40;96.00;;;;;;5072826;28;20078;-69
2021/03/14 17:33:24;;;;;;;11.07;2.40;;;11.30;96.50;;;;;;5070867;28;20029;-68
2021/03/14 17:35:50;;;;;;;8.38;1.92;;;11.30;96.60;;;;;;5059297;28;20036;-69
2021/03/14 17:38:16;;;;;;;12.68;2.05;;;11.30;96.80;;;;;;5059592;28;20024;-69
2021/03/14 17:40:42;;;;;;;8.45;2.47;;;11.40;97.20;;;;;;5058222;28;20047;-69
2021/03/14 17:43:09;;;;;;;8.20;2.28;;;11.20;97.70;;;;;;5058252;28;20405;-69
2021/03/14 17:45:35;;;;;;;19.70;4.75;;;11.20;97.70;;;;;;5058256;28;20089;-69
2021/03/14 17:48:01;;;;;;;5.40;1.90;;;11.20;98.30;;;;;;5058965;28;20021;-69
2021/03/14 17:50:27;;;;;;;7.30;2.15;;;11.00;98.10;;;;;;5059125;28;20116;-69
2021/03/14 17:52:53;;;;;;;5.53;2.03;;;10.90;97.90;;;;;;5059305;28;20017;-69
2021/03/14 17:55:20;;;;;;;4.55;1.83;;;10.70;97.70;;;;;;5058631;28;20048;-69
2021/03/14 17:57:47;;;;;;;8.10;3.08;;;10.80;97.80;;;;;;5059326;28;20539;-69
2021/03/14 18:00:18;;;;;;;5.00;2.10;;;10.70;98.10;;;;;;5058807;28;20059;-69
2021/03/14 18:02:45;;;;;;;7.05;1.73;;;10.50;98.00;;;;;;5058505;28;20103;-68
2021/03/14 18:05:13;;;;;;;7.95;1.88;;;10.40;98.30;;;;;;5056359;28;20562;-68
2021/03/14 18:07:39;;;;;;;8.18;2.08;;;10.40;98.60;;;;;;5057540;28;20100;-69
2021/03/14 18:10:07;;;;;;;13.52;2.47;;;10.20;98.60;;;;;;5057799;28;20473;-68
2021/03/14 18:12:34;;;;;;;7.72;2.22;;;10.20;98.80;;;;;;5054486;28;20057;-68
2021/03/14 18:15:01;;;;;;;13.60;1.98;;;10.10;99.10;;;;;;5054879;28;20021;-68
2021/03/14 18:17:27;;;;;;;9.82;1.67;;;10.00;98.90;;;;;;5058358;28;20029;-68
2021/03/14 18:19:53;;;;;;;;;;;10.00;99.00;;;;;;5059265;28;20080;-68
2021/03/14 18:22:19;;;;;;;5.83;1.77;;;9.90;99.30;;;;;;5057745;28;19904;-68
2021/03/14 18:24:46;;;;;;;5.25;2.08;;;9.90;99.30;;;;;;5058049;28;20868;-68
2021/03/14 18:27:12;;;;;;;5.93;1.55;;;10.00;99.40;;;;;;5058273;28;20032;-68
2021/03/14 18:29:38;;;;;;;;;;;9.80;99.70;;;;;;5058977;28;20025;-68
2021/03/14 18:32:05;;;;;;;7.00;1.60;;;9.80;99.60;;;;;;5058138;28;19951;-69
2021/03/14 18:34:32;;;;;;;5.82;1.45;;;9.60;99.70;;;;;;5055111;28;20036;-69
2021/03/14 18:36:58;;;;;;;12.88;2.55;;;9.60;99.90;;;;;;5058431;28;20099;-68
2021/03/14 18:39:25;;;;;;;6.22;2.45;;;9.50;99.90;;;;;;5056356;28;20036;-68
2021/03/14 18:41:50;;;;;;;4.93;1.90;;;9.50;99.90;;;;;;5058116;28;20060;-69
2021/03/14 18:44:16;;;;;;;;;;;9.20;99.90;;;;;;5058619;28;20029;-69
2021/03/14 18:46:42;;;;;;;8.65;2.35;;;9.20;99.90;;;;;;5054449;28;19969;-69
2021/03/14 18:49:08;;;;;;;5.85;2.08;;;9.20;99.90;;;;;;5057415;28;20461;-68
2021/03/14 18:51:35;;;;;;;;;;;9.00;99.90;;;;;;5054215;28;20025;-69
2021/03/14 18:54:01;;;;;;;22.70;4.33;;;9.00;99.90;;;;;;5054913;28;19905;-68
2021/03/14 18:56:27;;;;;;;6.93;2.15;;;8.90;99.90;;;;;;5057426;28;20624;-69
2021/03/14 18:58:53;;;;;;;9.90;2.85;;;8.80;99.90;;;;;;5057575;28;20045;-68
2021/03/14 19:01:19;;;;;;;9.27;2.58;;;8.70;99.90;;;;;;5057861;28;20052;-68
2021/03/14 19:03:45;;;;;;;;;;;8.70;99.90;;;;;;5057826;28;20021;-68
2021/03/14 19:06:11;;;;;;;7.10;2.60;;;8.50;99.90;;;;;;5057685;28;19905;-68
2021/03/14 19:08:37;;;;;;;;;;;8.40;99.90;;;;;;5071683;28;20064;-68
2021/03/14 19:11:04;;;;;;;4.75;2.20;;;8.30;99.90;;;;;;5056183;28;20000;-68
2021/03/14 19:13:30;;;;;;;10.90;3.25;;;8.20;99.90;;;;;;5057571;28;20074;-69
2021/03/14 19:15:56;;;;;;;6.40;2.30;;;8.20;99.90;;;;;;5057890;28;20127;-69
2021/03/14 19:18:23;;;;;;;8.82;3.30;;;8.00;99.90;;;;;;5055951;28;20033;-69
2021/03/14 19:20:49;;;;;;;8.98;2.70;;;8.10;99.90;;;;;;5057424;28;20048;-69
2021/03/14 19:23:14;;;;;;;;;;;7.90;99.90;;;;;;5057818;28;20009;-69
2021/03/14 19:25:40;;;;;;;5.32;2.30;;;7.90;99.90;;;;;;5056837;28;19912;-68
2021/03/14 19:28:06;;;;;;;;;;;7.90;99.90;;;;;;5058040;28;20025;-69
2021/03/14 19:30:32;;;;;;;6.85;2.30;;;7.90;99.90;;;;;;5057310;28;19975;-68
2021/03/14 19:32:58;;;;;;;5.18;2.05;;;7.70;99.90;;;;;;5056924;28;20031;-69
2021/03/14 19:35:24;;;;;;;7.18;3.30;;;7.80;99.90;;;;;;5052442;28;20492;-68
2021/03/14 19:37:50;;;;;;;;;;;7.60;99.90;;;;;;5057610;28;20429;-68
2021/03/14 19:40:17;;;;;;;11.43;2.10;;;7.70;99.90;;;;;;5054875;28;20342;-68
2021/03/14 19:42:43;;;;;;;10.50;2.28;;;7.70;99.90;;;;;;5056438;28;20052;-69
2021/03/14 19:45:11;;;;;;;4.88;2.38;;;7.70;99.90;;;;;;5055737;28;20040;-69
2021/03/14 19:47:38;;;;;;;4.03;2.42;;;7.70;99.90;;;;;;5053984;28;20021;-69
2021/03/14 19:50:06;;;;;;;7.22;3.35;;;7.70;99.90;;;;;;5055709;28;20040;-68
2021/03/14 19:52:32;;;;;;;4.93;2.17;;;7.40;99.90;;;;;;5056791;28;20503;-69
2021/03/14 19:54:58;;;;;;;;;;;7.60;99.90;;;;;;5057334;28;20548;-68
2021/03/14 19:57:24;;;;;;;8.23;2.22;;;7.70;99.90;;;;;;5055097;28;19928;-69
2021/03/14 19:59:49;;;;;;;;;;;7.80;99.90;;;;;;5057446;28;20074;-68
2021/03/14 20:02:15;;;;;;;7.78;2.22;;;7.80;99.90;;;;;;5056808;28;19905;-68
2021/03/14 20:04:41;;;;;;;;;;;7.90;99.90;;;;;;5057540;28;20021;-68
2021/03/14 20:07:08;;;;;;;6.68;1.95;;;7.70;99.90;;;;;;5061543;28;20392;-68
2021/03/14 20:09:34;;;;;;;10.43;2.88;;;8.00;99.90;;;;;;5075475;28;20028;-69
2021/03/14 20:12:01;;;;;;;6.82;2.72;;;8.00;99.90;;;;;;5076712;28;20031;-68
2021/03/14 20:14:27;;;;;;;10.32;2.65;;;8.00;99.90;;;;;;5077140;28;20393;-69
2021/03/14 20:16:54;;;;;;;;;;;8.00;99.90;;;;;;5056227;28;20112;-68
2021/03/14 20:19:20;;;;;;;7.75;3.60;;;8.10;99.90;;;;;;5056858;28;20339;-68
2021/03/14 20:21:46;;;;;;;18.83;3.53;;;8.20;99.90;;;;;;5056790;28;20029;-69
2021/03/14 20:24:11;;;;;;;;;;;8.10;99.90;;;;;;5056960;28;20091;-68
2021/03/14 20:26:38;;;;;;;12.27;3.33;;;8.30;99.90;;;;;;5056528;28;19911;-69
2021/03/14 20:29:05;;;;;;;10.93;3.80;;;8.10;99.90;;;;;;5057063;28;20021;-68
2021/03/14 20:31:32;;;;;;;17.65;2.95;;;8.20;99.90;;;;;;5056378;28;20101;-68
2021/03/14 20:33:58;;;;;;;11.00;3.08;;;8.40;99.90;;;;;;5055101;28;20025;-68
2021/03/14 20:36:23;;;;;;;;;;;8.30;99.90;;;;;;5073474;28;20032;-68
2021/03/14 20:38:49;;;;;;;10.77;2.92;;;8.30;99.90;;;;;;5076355;28;20006;-68
2021/03/14 20:41:15;;;;;;;;;;;8.40;99.90;;;;;;5076999;28;20013;-68
2021/03/14 20:43:41;;;;;;;11.68;3.38;;;8.30;99.90;;;;;;5076912;28;20448;-68
2021/03/14 20:46:08;;;;;;;;;;;8.30;99.90;;;;;;5078294;28;20028;-68
2021/03/14 20:48:34;;;;;;;7.72;2.78;;;8.60;99.90;;;;;;5065879;28;19905;-68
2021/03/14 20:50:59;;;;;;;;;;;8.50;99.90;;;;;;5058832;28;20036;-68
2021/03/14 20:53:25;;;;;;;7.00;2.80;;;8.50;99.90;;;;;;5059703;28;19915;-68
2021/03/14 20:55:52;;;;;;;;;;;8.50;99.90;;;;;;5060488;28;20422;-68
2021/03/14 20:58:18;;;;;;;6.95;2.80;;;8.50;99.90;;;;;;5060217;28;19916;-68
2021/03/14 21:00:44;;;;;;;7.15;3.03;;;8.50;99.90;;;;;;5059723;28;20083;-68
2021/03/14 21:03:11;;;;;;;;;;;8.60;99.90;;;;;;5059676;28;20021;-68
2021/03/14 21:05:38;;;;;;;5.88;2.35;;;8.70;99.90;;;;;;5058738;28;19912;-68
2021/03/14 21:08:05;;;;;;;6.05;2.67;;;8.60;99.90;;;;;;5071696;28;20035;-68
2021/03/14 21:10:35;;;;;;;9.60;2.78;;;8.60;99.90;;;;;;5079853;28;20028;-69
2021/03/14 21:13:02;;;;;;;5.18;2.53;;;8.80;99.90;;;;;;5080115;28;20067;-68
2021/03/14 21:15:28;;;;;;;10.27;2.88;;;8.70;99.90;;;;;;5079490;28;20431;-69
2021/03/14 21:17:55;;;;;;;8.27;2.90;;;8.60;99.90;;;;;;5080167;28;20074;-68
2021/03/14 21:20:23;;;;;;;6.97;3.30;;;8.80;99.90;;;;;;5070074;28;20025;-69
2021/03/14 21:22:49;;;;;;;5.18;2.33;;;8.80;99.90;;;;;;5059548;28;20075;-68
2021/03/14 21:25:16;;;;;;;8.90;3.15;;;8.80;99.90;;;;;;5046372;28;20055;-68
2021/03/14 21:27:42;;;;;;;10.20;3.58;;;8.90;99.90;;;;;;5059937;28;20052;-68
2021/03/14 21:30:08;;;;;;;;;;;8.70;99.90;;;;;;5059619;28;20026;-68
2021/03/14 21:32:34;;;;;;;6.75;2.30;;;8.60;99.90;;;;;;5059930;28;19904;-68
2021/03/14 21:35:01;;;;;;;8.82;2.33;;;8.50;99.90;;;;;;5056207;28;20066;-69
2021/03/14 21:37:28;;;;;;;6.93;2.88;;;8.40;99.90;;;;;;5056566;28;20062;-68
2021/03/14 21:39:54;;;;;;;6.68;3.35;;;8.30;99.90;;;;;;5059435;28;20060;-69
2021/03/14 21:42:20;;;;;;;13.73;4.80;;;8.10;99.90;;;;;;5059324;28;20051;-68
2021/03/14 21:44:47;;;;;;;9.13;3.90;;;8.00;99.90;;;;;;5055684;28;20021;-69
2021/03/14 21:47:13;;;;;;;11.30;4.40;;;7.90;99.90;;;;;;5053213;28;20028;-69
2021/03/14 21:49:39;;;;;;;10.68;4.07;;;7.80;99.90;;;;;;5059102;28;20107;-68
2021/03/14 21:52:05;;;;;;;;;;;7.80;99.90;;;;;;5058536;28;20045;-68
2021/03/14 21:54:31;;;;;;;8.35;3.70;;;7.90;99.90;;;;;;5059230;28;19955;-68
2021/03/14 21:56:57;;;;;;;10.23;4.05;;;7.70;99.90;;;;;;5058896;28;20430;-68
2021/03/14 21:59:22;;;;;;;;;;;7.40;99.90;;;;;;5059488;28;20064;-68
2021/03/14 22:01:48;;;;;;;12.57;3.83;;;7.30;99.90;;;;;;5059151;28;19909;-68
2021/03/14 22:04:14;;;;;;;;;;;7.40;99.90;;;;;;5059794;28;20021;-68
2021/03/14 22:06:40;;;;;;;12.90;3.42;;;7.30;99.90;;;;;;5058912;28;19904;-68
2021/03/14 22:09:06;;;;;;;;;;;7.50;99.90;;;;;;5059749;28;20032;-68
2021/03/14 22:11:31;;;;;;;10.25;3.17;;;7.20;99.90;;;;;;5057374;28;19912;-68
2021/03/14 22:13:57;;;;;;;;;;;7.50;99.90;;;;;;5059534;28;20394;-68
2021/03/14 22:16:23;;;;;;;9.75;3.33;;;7.40;99.90;;;;;;5058843;28;19905;-68
2021/03/14 22:18:49;;;;;;;;;;;7.30;99.90;;;;;;5059237;28;20059;-69
2021/03/14 22:21:15;;;;;;;6.57;2.97;;;7.40;99.90;;;;;;5058669;28;19908;-69
2021/03/14 22:23:40;;;;;;;;;;;7.30;99.90;;;;;;5059397;28;20444;-68
2021/03/14 22:26:06;;;;;;;22.98;5.43;;;7.30;99.90;;;;;;5058392;28;19996;-68
2021/03/14 22:28:32;;;;;;;;;;;7.50;99.90;;;;;;5057879;28;20021;-68
2021/03/14 22:30:58;;;;;;;17.52;4.80;;;7.50;99.90;;;;;;5058505;28;20389;-68
2021/03/14 22:33:24;;;;;;;;;;;7.60;99.90;;;;;;5059063;28;20033;-68
2021/03/14 22:35:50;;;;;;;23.67;5.68;;;7.60;99.90;;;;;;5055437;28;20002;-68
2021/03/14 22:38:16;;;;;;;;;;;7.90;99.90;;;;;;5058834;28;20029;-68
2021/03/14 22:40:42;;;;;;;17.80;5.70;;;7.90;99.90;;;;;;5058120;28;19962;-68
2021/03/14 22:43:08;;;;;;;;;;;8.00;99.90;;;;;;5058857;28;20025;-68
2021/03/14 22:45:35;;;;;;;14.60;4.97;;;8.00;99.90;;;;;;5058462;28;20431;-68
2021/03/14 22:48:02;;;;;;;13.30;4.97;;;8.20;99.90;;;;;;5058490;28;20093;-68
2021/03/14 22:50:36;;;;;;;16.23;6.53;;;8.10;99.90;;;;;;5058084;28;20051;-68
2021/03/14 22:53:04;;;;;;;23.10;4.30;;;8.10;99.90;;;;;;5058347;28;20097;-69
2021/03/14 22:55:31;;;;;;;16.38;4.43;;;8.10;99.90;;;;;;5057789;28;20056;-68
2021/03/14 22:57:57;;;;;;;22.17;5.30;;;8.20;99.90;;;;;;5058383;28;20032;-68
2021/03/14 23:00:39;;;;;;;14.77;4.68;;;8.30;99.90;;;;;;5057781;28;20417;-68
2021/03/14 23:03:10;;;;;;;18.77;4.63;;;8.30;99.90;;;;;;5058298;28;20062;-68
2021/03/14 23:05:36;;;;;;;13.35;5.00;;;8.40;99.90;;;;;;5056504;28;20120;-68
2021/03/14 23:08:11;;;;;;;;;;;8.50;99.90;;;;;;5056648;28;20052;-69
2021/03/14 23:10:48;;;;;;;25.80;4.70;;;8.50;99.90;;;;;;5057798;28;19936;-68
2021/03/14 23:13:14;;;;;;;15.15;3.70;;;8.40;99.90;;;;;;5057950;28;20025;-69
2021/03/14 23:15:39;;;;;;;;;;;8.50;99.90;;;;;;5058310;28;20029;-69
2021/03/14 23:18:06;;;;;;;28.83;4.80;;;8.70;99.90;;;;;;5056661;28;19911;-68
2021/03/14 23:20:34;;;;;;;21.30;4.90;;;8.40;99.90;;;;;;5057848;28;20033;-69
2021/03/14 23:23:01;;;;;;;23.33;4.18;;;8.60;99.90;;;;;;5058037;28;20112;-69
2021/03/14 23:25:30;;;;;;;11.10;4.45;;;8.50;99.90;;;;;;5057431;28;20432;-69
2021/03/14 23:28:00;;;;;;;14.32;4.45;;;8.60;99.90;;;;;;5057793;28;20025;-69
2021/03/14 23:30:29;;;;;;;30.13;6.47;;;8.60;99.90;;;;;;5057795;28;20024;-69
2021/03/14 23:32:58;;;;;;;21.70;6.60;;;8.50;99.90;;;;;;5057491;28;20472;-68
2021/03/14 23:35:26;;;;;;;16.52;4.38;;;8.60;99.90;;;;;;5053668;28;20036;-69
2021/03/14 23:37:52;;;;;;;18.65;4.38;;;8.60;99.90;;;;;;5056342;28;20029;-69
2021/03/14 23:40:17;;;;;;;;;;;8.80;99.90;;;;;;5056195;28;20144;-68
2021/03/14 23:42:43;;;;;;;21.30;4.55;;;8.60;99.90;;;;;;5057499;28;20379;-68
2021/03/14 23:45:09;;;;;;;;;;;8.70;99.90;;;;;;5057901;28;20092;-68
2021/03/14 23:47:35;;;;;;;21.98;4.70;;;8.80;99.90;;;;;;5057341;28;19904;-69
2021/03/14 23:50:01;;;;;;;;;;;8.80;99.90;;;;;;5057683;28;20060;-69
2021/03/14 23:52:26;;;;;;;23.67;5.00;;;8.60;99.90;;;;;;5057086;28;20007;-69
2021/03/14 23:54:52;;;;;;;;;;;8.90;99.90;;;;;;5057816;28;20043;-69
2021/03/14 23:57:18;;;;;;;28.63;4.82;;;8.70;99.90;;;;;;5056865;28;20007;-69
2021/03/14 23:59:44;;;;;;;;;;;8.90;99.90;;;;;;5057444;28;20049;-69
